Nearby METAR Reports

 

KISP - Islip, New York, USA
Distance from station: SW 4mi, 6km
Updated: Wed, 02/20/2019 3:56 am EST
Clear
Clear
 Wind from N
Wind: N 7 mph , 11 km/h
Temperature: 25°F , -4°C
Wind Chill: 17°F , -8°C
Dew Point: 10°F , -12°C
Humidity: 54%
Barometer: 30.60 inHg , 1036.2 hPa
Clouds: Clear
Visibility: 10 miles , 16 km
2019/02/20 08:56 KISP 200856Z AUTO 01006KT 10SM CLR M04/M12 A3060 RMK AO2 SLP363 T10391122 51006
KHWV - Shirley, New York, USA
Distance from station: E 10mi, 16km
Updated: Wed, 02/20/2019 3:56 am EST
Clear
Clear
 Wind from N
Wind: N 5 mph , 7 km/h
Temperature: 25°F , -4°C
Wind Chill: 19°F , -7°C
Dew Point: 9°F , -13°C
Humidity: 50%
Barometer: 30.62 inHg , 1036.9 hPa
Clouds: Clear
Visibility: 10 miles , 16 km
2019/02/20 08:56 KHWV 200856Z AUTO 36004KT 10SM CLR M04/M13 A3062 RMK AO2 SLP368 T10391128 50008
 
KFRG - Farmingdale, New York, USA
Distance from station: WSW 20mi, 33km
Updated: Wed, 02/20/2019 3:53 am EST
Clear
Clear
 Wind from NE
Wind: NE 5 mph , 7 km/h
Temperature: 25°F , -4°C
Wind Chill: 19°F , -7°C
Dew Point: 10°F , -12°C
Humidity: 54%
Barometer: 30.60 inHg , 1036.2 hPa
Clouds: Clear
Visibility: 10 miles , 16 km
2019/02/20 08:53 KFRG 200853Z AUTO 04004KT 10SM CLR M04/M12 A3060 RMK AO2 SLP363 T10391122 50004
KBDR - Bridgeport, Connecticut, USA
Distance from station: N 23mi, 37km
Updated: Wed, 02/20/2019 3:52 am EST
Clear
Clear
 Wind from NNW
Wind: NNW 3 mph , 6 km/h
Temperature: 25°F , -4°C
Dew Point: 9°F , -13°C
Humidity: 50%
Barometer: 30.62 inHg , 1036.9 hPa
Clouds: Clear
Visibility: 10 miles , 16 km
2019/02/20 08:52 KBDR 200852Z AUTO 34003KT 10SM CLR M04/M13 A3062 RMK AO2 SLP369 T10441133 53007
 
KFOK - Westhampton Beac, New York, USA
Distance from station: E 23mi, 37km
Updated: Wed, 02/20/2019 3:53 am EST
Clear
Clear
 Wind from N
Wind: N 7 mph , 11 km/h
Temperature: 25°F , -4°C
Wind Chill: 17°F , -8°C
Dew Point: 10°F , -12°C
Humidity: 54%
Barometer: 30.62 inHg , 1036.9 hPa
Clouds: Clear
Visibility: 10 miles , 16 km
2019/02/20 08:53 KFOK 200853Z AUTO 36006KT 10SM CLR M04/M12 A3062 RMK AO2 SLP370 T10391122 50007 $
KHVN - New Haven/Tweed, Connecticut, USA
Distance from station: NNE 31mi, 50km
Updated: Wed, 02/20/2019 3:53 am EST
Clear
Clear
 Wind from N
Wind: N 3 mph , 6 km/h
Temperature: 25°F , -4°C
Dew Point: 9°F , -13°C
Humidity: 50%
Barometer: 30.61 inHg , 1036.6 hPa
Clouds: Clear
Visibility: 10 miles , 16 km
2019/02/20 08:53 KHVN 200853Z AUTO 36003KT 10SM CLR M04/M13 A3061 RMK AO2 SLP365 T10441128 53007
 
KHPN - White Plains, New York, USA
Distance from station: WNW 37mi, 60km
Updated: Wed, 02/20/2019 3:56 am EST
Clear
Clear
 Wind from N
Wind: N 5 mph , 7 km/h
Temperature: 21°F , -6°C
Wind Chill: 14°F , -10°C
Dew Point: 7°F , -14°C
Humidity: 54%
Barometer: 30.57 inHg , 1035.2 hPa
Clouds: Clear
Visibility: 10 miles , 16 km
2019/02/20 08:56 KHPN 200856Z 35004KT 10SM CLR M06/M14 A3057 RMK AO2 SLP364 T10561139 50007
KJFK - Nyc/Jfk Arpt, New York, USA
Distance from station: WSW 40mi, 64km
Updated: Wed, 02/20/2019 3:51 am EST
Overcast
Overcast
 Wind from NNE
Wind: NNE 5 mph , 7 km/h
Temperature: 28°F , -2°C
Wind Chill: 22°F , -6°C
Dew Point: 10°F , -12°C
Humidity: 47%
Barometer: 30.62 inHg , 1036.9 hPa
Clouds: Overcast
Visibility: 10 miles , 16 km
Cloud details: Overcast 21000 ft
2019/02/20 08:51 KJFK 200851Z 02004KT 10SM OVC210 M02/M12 A3062 RMK AO2 SLP366 T10221117 50002
 
KDXR - Danbury, Connecticut, USA
Distance from station: NNW 42mi, 68km
Updated: Wed, 02/20/2019 3:53 am EST
Clear
Clear
 Wind from WSW
Wind: WSW 3 mph , 6 km/h
Temperature: 19°F , -7°C
Dew Point: 9°F , -13°C
Humidity: 63%
Barometer: 30.60 inHg , 1036.2 hPa
Clouds: Clear
Visibility: 10 miles , 16 km
2019/02/20 08:53 KDXR 200853Z AUTO 25003KT 10SM CLR M07/M13 A3060 RMK AO2 SLP369 T10721128 53007
KHTO - East Hampton, New York, USA
Distance from station: E 43mi, 69km
Updated: Wed, 02/20/2019 3:55 am EST
Clear
Clear
 Wind from NNW
Wind: NNW 5 mph , 7 km/h
Temperature: 23°F , -5°C
Wind Chill: 17°F , -8°C
Dew Point: 9°F , -13°C
Humidity: 54%
Barometer: 30.60 inHg , 1036.2 hPa
Clouds: Clear
Visibility: 10 miles , 16 km
2019/02/20 08:55 KHTO 200855Z AUTO 34004KT 10SM CLR M05/M13 A3060 RMK AO2 T10501130
 
KOXC - Oxford/Waterbury, Connecticut, USA
Distance from station: N 43mi, 70km
Updated: Wed, 02/20/2019 3:51 am EST
Clear
Clear
 Wind from calm
Wind: Calm
Temperature: 18°F , -8°C
Dew Point: 9°F , -13°C
Humidity: 68%
Barometer: 30.56 inHg , 1034.9 hPa
Clouds: Clear
Visibility: 10 miles , 16 km
2019/02/20 08:51 KOXC 200851Z AUTO 00000KT 10SM CLR M08/M13 A3056 RMK AO2 SLP375 T10831133 53003 FZRANO
KLGA - Nyc/La Guardia, New York, USA
Distance from station: W 44mi, 70km
Updated: Wed, 02/20/2019 3:51 am EST
Overcast
Overcast
 Wind from NNE
Wind: NNE 3 mph , 6 km/h
Temperature: 28°F , -2°C
Dew Point: 7°F , -14°C
Humidity: 40%
Barometer: 30.61 inHg , 1036.6 hPa
Clouds: Overcast
Visibility: 10 miles , 16 km
Cloud details: Overcast 20000 ft
2019/02/20 08:51 KLGA 200851Z 03003KT 10SM OVC200 M02/M14 A3061 RMK AO2 SLP363 T10221139 50003
 
KSNC - Chester, Connecticut, USA
Distance from station: NE 47mi, 76km
Updated: Wed, 02/20/2019 3:55 am EST
Clear
Clear
 Wind from calm
Wind: Calm
Temperature: 19°F , -7°C
Dew Point: 9°F , -13°C
Humidity: 63%
Barometer: 30.58 inHg , 1035.6 hPa
Clouds: Clear
Visibility: 10 miles , 16 km
2019/02/20 08:55 KSNC 200855Z AUTO 00000KT 10SM CLR M07/M13 A3058 RMK AO2
KMMK - Meriden, Connecticut, USA
Distance from station: NNE 48mi, 77km
Updated: Wed, 02/20/2019 3:53 am EST
Clear
Clear
 Wind from calm
Wind: Calm
Temperature: 21°F , -6°C
Dew Point: 9°F , -13°C
Humidity: 58%
Barometer: 30.61 inHg , 1036.6 hPa
Clouds: Clear
Visibility: 10 miles , 16 km
2019/02/20 08:53 KMMK 200853Z AUTO 00000KT 10SM CLR M06/M13 A3061 RMK AO2 SLP369 T10611128 53005
 
KNYC - Nyc/Central Park, New York, USA
Distance from station: W 48mi, 77km
Updated: Wed, 02/20/2019 3:51 am EST
Clear
Clear
 
Temperature: 28°F , -2°C
Dew Point: 7°F , -14°C
Humidity: 40%
Barometer: 30.62 inHg , 1036.9 hPa
Clouds: Clear
Visibility: 10 miles , 16 km
2019/02/20 08:51 KNYC 200851Z AUTO 10SM CLR M02/M14 A3062 RMK AO2 SLP362 T10221144 50004 $